Maersk Kotka — CQHT — position and weather

sailwx.info

Track history (hours):
 
Tides and Currents Weather Stations Pressure Air Temp Water Temp Dewpoint Dewpoint Depression Visibility Wind Speed Wind Dir Waves Ship Positions

Maersk Kotka

Last reported at 2017-Dec-11 17:00 UTC. Time now 2017-Dec-11 19:12 UTC.
Position N 49°34' W 000°07'.

Length 318 m; draft 12.3 m.

Type: Ship (hazmat cat A). MMSI: 255805595.

Date/timePositionNaut miles runAvg speedWind from/ knotsBaromVisibWave heightAir tempDewpointWater temp
2017-Dec-11 17:00N 49°34' W 000°07'1 2.0
2017-Dec-11 16:30N 49°35' W 000°06'0 0.8
2017-Dec-11 16:00N 49°35' W 000°07'0 0.6
2017-Dec-11 15:30N 49°35' W 000°07'0 0.8
2017-Dec-11 15:00N 49°35' W 000°07'0 0.9
2017-Dec-11 14:30N 49°35' W 000°06'0 0.6
2017-Dec-11 14:00N 49°34' W 000°07'1 2.5
2017-Dec-11 13:31N 49°33' W 000°06'1 1.7
2017-Dec-11 13:00N 49°32' W 000°06'1 1.2
2017-Dec-11 12:30N 49°32' W 000°05'2 3.5
2017-Dec-11 12:00N 49°32' W 000°08'3 5.6
2017-Dec-11 11:30N 49°32' W 000°12'2 3.9
2017-Dec-11 11:00N 49°33' W 000°15'2 4.1
2017-Dec-11 10:30N 49°33' W 000°18'3 5.4
2017-Dec-11 10:00N 49°36' W 000°19'510.7
2017-Dec-11 09:30N 49°41' W 000°22'510.5
2017-Dec-11 09:00N 49°46' W 000°23'611.5
2017-Dec-11 08:30N 49°52' W 000°22'612.7
2017-Dec-11 08:00N 49°58' W 000°19'713.6
2017-Dec-11 07:30N 50°05' W 000°16'714.2
2017-Dec-11 07:00N 50°12' W 000°13'816.2
2017-Dec-11 06:30N 50°19' W 000°10'917.2
2017-Dec-11 06:00N 50°27' W 000°04'918.9
2017-Dec-11 05:30N 50°29' E 000°10'918.6
2017-Dec-11 05:00N 50°32' E 000°24'918.2
2017-Dec-11 04:30N 50°35' E 000°38'918.1
2017-Dec-11 04:00N 50°41' E 000°49'918.1
2017-Dec-11 03:30N 50°46' E 001°01'918.4
2017-Dec-11 03:00N 50°51' E 001°12'1019.1
2017-Dec-11 02:30N 50°58' E 001°23'1020.4
2017-Dec-11 02:00N 51°06' E 001°34'1020.7
2017-Dec-11 01:30N 51°13' E 001°45'1020.2
2017-Dec-11 01:00N 51°22' E 001°52'1019.2
2017-Dec-11 00:31N 51°29' E 002°03'1019.0
2017-Dec-11 00:00N 51°37' E 002°12'7917.4
2017-Dec-10 19:28N 52°38' E 003°33'817.0
2017-Dec-10 19:00N 52°44' E 003°41'917.2
2017-Dec-10 18:30N 52°51' E 003°50'917.1
2017-Dec-10 18:00N 52°57' E 003°60'917.6
2017-Dec-10 17:30N 53°03' E 004°11'918.1
2017-Dec-10 17:00N 53°09' E 004°22'1017.9
2017-Dec-10 16:27N 53°17' E 004°31'818.2
2017-Dec-10 16:00N 53°25' E 004°36'917.6
2017-Dec-10 15:31N 53°31' E 004°46'918.4
2017-Dec-10 15:00N 53°34' E 005°01'918.7
2017-Dec-10 14:30N 53°37' E 005°16'918.1
2017-Dec-10 13:59N 53°40' E 005°31'8116.7
2017-Dec-10 09:08N 53°53' E 007°46'214.8
2017-Dec-10 09:00N 53°53' E 007°49'611.5
2017-Dec-10 08:31N 53°51' E 007°59'816.3
2017-Dec-10 08:00N 53°47' E 008°10'917.8
2017-Dec-10 07:30N 53°41' E 008°22'815.5
2017-Dec-10 07:00N 53°36' E 008°31'1 2.3
2017-Dec-10 06:28N 53°35' E 008°32'0 0.0
2017-Dec-10 05:58N 53°35' E 008°32'0 0.0
2017-Dec-10 05:28N 53°35' E 008°32'0 0.0
2017-Dec-10 04:58N 53°35' E 008°32'0 0.0
2017-Dec-10 04:28N 53°35' E 008°32'0 0.0
2017-Dec-10 03:58N 53°35' E 008°32'0 0.0
2017-Dec-10 03:28N 53°35' E 008°32'0 0.0
2017-Dec-10 02:58N 53°35' E 008°32'0 0.0
2017-Dec-10 02:28N 53°35' E 008°32'0 0.0
2017-Dec-10 01:58N 53°35' E 008°32'0 0.0
2017-Dec-10 01:28N 53°35' E 008°32'0 0.0
2017-Dec-10 00:58N 53°35' E 008°32'0 0.0
2017-Dec-10 00:28N 53°35' E 008°32'0 0.0
2017-Dec-09 23:58N 53°35' E 008°32'0 0.0
2017-Dec-09 23:28N 53°35' E 008°32'0 0.0
2017-Dec-09 22:58N 53°35' E 008°32'0 0.0
2017-Dec-09 22:28N 53°35' E 008°32'0 0.0
2017-Dec-09 21:58N 53°35' E 008°32'0 0.0
2017-Dec-09 21:28N 53°35' E 008°32'0 0.0
2017-Dec-09 20:58N 53°35' E 008°32'0 0.0
2017-Dec-09 20:28N 53°35' E 008°32'0 0.0
2017-Dec-09 19:58N 53°35' E 008°32'0 0.0
2017-Dec-09 19:28N 53°35' E 008°32'0 0.0
2017-Dec-09 18:58N 53°35' E 008°32'0 0.0
2017-Dec-09 18:28N 53°35' E 008°32'0 0.0
2017-Dec-09 17:58N 53°35' E 008°32'0 0.0
2017-Dec-09 17:28N 53°35' E 008°32'0 0.0
2017-Dec-09 16:58N 53°35' E 008°32'0 0.0
2017-Dec-09 16:28N 53°35' E 008°32'0 0.0
2017-Dec-09 15:58N 53°35' E 008°32'0 0.0
2017-Dec-09 15:28N 53°35' E 008°32'0 0.0
2017-Dec-09 14:58N 53°35' E 008°32'0 0.0
2017-Dec-09 14:28N 53°35' E 008°32'0 0.0
2017-Dec-09 13:58N 53°35' E 008°32'0 0.0
2017-Dec-09 13:28N 53°35' E 008°32'0 0.0
2017-Dec-09 12:58N 53°35' E 008°32'0 0.0
2017-Dec-09 12:28N 53°35' E 008°32'0 0.0
2017-Dec-09 11:58N 53°35' E 008°32'0 0.0
2017-Dec-09 11:28N 53°35' E 008°32'0 0.0
2017-Dec-09 10:58N 53°35' E 008°32'0 0.0
2017-Dec-09 10:28N 53°35' E 008°32'0 0.0
2017-Dec-09 09:58N 53°35' E 008°32'0 0.0
2017-Dec-09 09:28N 53°35' E 008°32'0 0.0
2017-Dec-09 08:58N 53°35' E 008°32'0 0.0
2017-Dec-09 08:28N 53°35' E 008°32'0 0.0
2017-Dec-09 07:58N 53°35' E 008°32'0 0.0
2017-Dec-09 07:28N 53°35' E 008°32'0 0.0
2017-Dec-09 06:58N 53°35' E 008°32'0 0.0
2017-Dec-09 06:28N 53°35' E 008°32'0 0.0
2017-Dec-09 05:58N 53°35' E 008°32'0 0.0
2017-Dec-09 05:28N 53°35' E 008°32'0 0.0
2017-Dec-09 04:58N 53°35' E 008°32'0 0.0
2017-Dec-09 04:28N 53°35' E 008°32'0 0.0
2017-Dec-09 03:58N 53°35' E 008°32'0 0.0
2017-Dec-09 03:28N 53°35' E 008°32'0 0.0
2017-Dec-09 02:58N 53°35' E 008°32'0 0.0
2017-Dec-09 02:28N 53°35' E 008°32'0 0.0
2017-Dec-09 01:58N 53°35' E 008°32'0 0.0
2017-Dec-09 01:28N 53°35' E 008°32'0 0.0
2017-Dec-09 00:58N 53°35' E 008°32'0 0.0
2017-Dec-09 00:28N 53°35' E 008°32'0 0.0
2017-Dec-08 23:58N 53°35' E 008°32'0 0.0
2017-Dec-08 23:28N 53°35' E 008°32'0 0.0
2017-Dec-08 22:58N 53°35' E 008°32'0 0.0
2017-Dec-08 22:30N 53°35' E 008°32'1 2.2
2017-Dec-08 22:00N 53°36' E 008°31'3 6.0
2017-Dec-08 21:30N 53°38' E 008°28'612.6
2017-Dec-08 21:00N 53°42' E 008°20'713.5
2017-Dec-08 20:30N 53°46' E 008°11'713.8
2017-Dec-08 20:00N 53°51' E 008°02'816.9
2017-Dec-08 19:30N 53°52' E 007°48'2 2.6
2017-Dec-08 18:54N 53°53' E 007°46'4 8.9
2017-Dec-08 18:30N 53°53' E 007°40'4 7.4
2017-Dec-08 18:00N 53°54' E 007°33'4 6.9
2017-Dec-08 17:29N 53°54' E 007°27'7214.0
2017-Dec-08 12:20N 53°36' E 005°30'412.8
2017-Dec-08 12:00N 53°34' E 005°24'714.8
2017-Dec-08 11:31N 53°32' E 005°12'815.1
2017-Dec-08 11:01N 53°29' E 005°00'815.6
2017-Dec-08 10:30N 53°25' E 004°49'714.6
2017-Dec-08 10:01N 53°20' E 004°41'714.8
2017-Dec-08 09:30N 53°13' E 004°36'815.1
2017-Dec-08 09:00N 53°06' E 004°29'815.6
2017-Dec-08 08:30N 52°59' E 004°23'815.8
2017-Dec-08 08:00N 52°52' E 004°17'815.5
2017-Dec-08 07:30N 52°46' E 004°10'815.6
2017-Dec-08 07:00N 52°39' E 004°03'815.5
2017-Dec-08 06:30N 52°33' E 003°56'816.1
2017-Dec-08 06:00N 52°25' E 003°53'816.2
2017-Dec-08 05:30N 52°17' E 003°52'713.5
2017-Dec-08 05:01N 52°10' E 003°55'5 9.0
2017-Dec-08 04:30N 52°06' E 003°56'3 6.1
2017-Dec-08 04:00N 52°03' E 003°57'4 8.9
2017-Dec-08 03:30N 51°60' E 004°02'2 4.4
2017-Dec-08 03:00N 51°58' E 004°03'0 0.7
2017-Dec-08 02:30N 51°57' E 004°03'0 0.0
2017-Dec-08 01:58N 51°57' E 004°03'0 0.0
2017-Dec-08 01:28N 51°57' E 004°03'0 0.0
2017-Dec-08 00:58N 51°57' E 004°03'0 0.0
2017-Dec-08 00:28N 51°57' E 004°03'0 0.0
2017-Dec-07 23:58N 51°57' E 004°03'0 0.0
2017-Dec-07 23:28N 51°57' E 004°03'0 0.0
2017-Dec-07 22:58N 51°57' E 004°03'0 0.0
2017-Dec-07 22:28N 51°57' E 004°03'0 0.0
2017-Dec-07 21:58N 51°57' E 004°03'0 0.0
2017-Dec-07 21:28N 51°57' E 004°03'0 0.0
2017-Dec-07 20:58N 51°57' E 004°03'0 0.0
2017-Dec-07 20:28N 51°57' E 004°03'0 0.0
2017-Dec-07 19:58N 51°57' E 004°03'0 0.0
2017-Dec-07 19:28N 51°57' E 004°03'0 0.0
2017-Dec-07 18:58N 51°57' E 004°03'0 0.0
2017-Dec-07 18:28N 51°57' E 004°03'0 0.0
2017-Dec-07 17:58N 51°57' E 004°03'0 0.0
2017-Dec-07 17:28N 51°57' E 004°03'0 0.0
2017-Dec-07 16:58N 51°57' E 004°03'0 0.0
2017-Dec-07 16:28N 51°57' E 004°03'0 0.0
2017-Dec-07 15:58N 51°57' E 004°03'0 0.0
2017-Dec-07 15:28N 51°57' E 004°03'0 0.0
2017-Dec-07 14:58N 51°57' E 004°03'0 0.0
2017-Dec-07 14:29N 51°57' E 004°03'0 0.0
2017-Dec-07 13:59N 51°57' E 004°03'0 0.0
2017-Dec-07 13:29N 51°57' E 004°03'0 0.0
2017-Dec-07 12:59N 51°57' E 004°03'0 0.0
2017-Dec-07 12:29N 51°57' E 004°03'0 0.0
2017-Dec-07 12:00N 51°57' E 004°03'0 0.0
2017-Dec-07 11:30N 51°57' E 004°03'0 0.0
2017-Dec-07 11:00N 51°57' E 004°03'0 0.0
2017-Dec-07 10:30N 51°57' E 004°03'0 0.0
2017-Dec-07 10:00N 51°57' E 004°03'0 0.0
2017-Dec-07 09:30N 51°57' E 004°03'0 0.0
2017-Dec-07 09:00N 51°57' E 004°03'0 0.0
2017-Dec-07 08:30N 51°57' E 004°03'0 0.0
2017-Dec-07 08:00N 51°57' E 004°03'0 0.0
2017-Dec-07 07:30N 51°57' E 004°03'0 0.1
2017-Dec-07 07:00N 51°58' E 004°03'1 1.5
2017-Dec-07 06:30N 51°58' E 004°04'1 2.2
2017-Dec-07 06:00N 51°59' E 004°05'3 5.6
2017-Dec-07 05:30N 51°60' E 004°01'3 5.2
2017-Dec-07 05:00N 52°02' E 003°58'2 4.1
2017-Dec-07 04:30N 52°01' E 003°55'3 6.1
2017-Dec-07 04:00N 52°01' E 003°50'5 9.5
2017-Dec-07 03:30N 51°59' E 003°43'5 9.8
2017-Dec-07 03:00N 51°58' E 003°35'4 1.8
2017-Dec-07 00:47N 51°55' E 003°31'0 0.1
2017-Dec-07 00:26N 51°55' E 003°31'0 0.0
2017-Dec-06 23:05N 51°55' E 003°31'0 0.2
2017-Dec-06 22:59N 51°55' E 003°31'0 0.0
2017-Dec-06 21:38N 51°55' E 003°31'0 0.1
2017-Dec-06 21:14N 51°55' E 003°31'0 0.2
2017-Dec-06 20:56N 51°55' E 003°31'  
2017-Dec-04 10:31N 51°25' E 003°29'5 9.3
2017-Dec-04 10:00N 51°26' E 003°37'5 9.2
2017-Dec-04 09:31N 51°24' E 003°43'612.9
2017-Dec-04 09:01N 51°21' E 003°52'714.2
2017-Dec-04 08:31N 51°26' E 003°60'612.3
2017-Dec-04 08:00N 51°22' E 004°07'510.3
2017-Dec-04 07:30N 51°21' E 004°15'3 6.5
2017-Dec-04 07:00N 51°18' E 004°16'0 0.1
2017-Dec-04 06:29N 51°18' E 004°16'0 0.0
2017-Dec-04 05:59N 51°18' E 004°16'0 0.0
2017-Dec-04 05:29N 51°18' E 004°16'0 0.0
2017-Dec-04 04:59N 51°18' E 004°16'0 0.0
2017-Dec-04 04:29N 51°18' E 004°16'0 0.0
2017-Dec-04 03:59N 51°18' E 004°16'0 0.0
2017-Dec-04 03:29N 51°18' E 004°16'0 0.0
2017-Dec-04 02:59N 51°18' E 004°16'0 0.0
2017-Dec-04 02:29N 51°18' E 004°16'0 0.0
2017-Dec-04 01:59N 51°18' E 004°16'0 0.0
2017-Dec-04 01:29N 51°18' E 004°16'0 0.0
2017-Dec-04 00:59N 51°18' E 004°16'0 0.0
2017-Dec-04 00:29N 51°18' E 004°16'0 0.0
2017-Dec-03 23:59N 51°18' E 004°16'0 0.0
2017-Dec-03 23:29N 51°18' E 004°16'0 0.0
2017-Dec-03 22:56N 51°18' E 004°16'0 0.0
2017-Dec-03 22:29N 51°18' E 004°16'0 0.0
2017-Dec-03 21:53N 51°18' E 004°16'0 0.0
2017-Dec-03 21:29N 51°18' E 004°16'0 0.0
2017-Dec-03 20:59N 51°18' E 004°16'0 0.0
2017-Dec-03 20:29N 51°18' E 004°16'0 0.0
2017-Dec-03 19:59N 51°18' E 004°16'0 0.0
2017-Dec-03 19:26N 51°18' E 004°16'0 0.0
2017-Dec-03 18:59N 51°18' E 004°16'0 0.0
2017-Dec-03 18:29N 51°18' E 004°16'0 0.0
2017-Dec-03 17:59N 51°18' E 004°16'0 0.0
2017-Dec-03 17:29N 51°18' E 004°16'0 0.0
2017-Dec-03 16:59N 51°18' E 004°16'0 0.0
2017-Dec-03 16:29N 51°18' E 004°16'0 0.0
2017-Dec-03 15:59N 51°18' E 004°16'0 0.0
2017-Dec-03 15:29N 51°18' E 004°16'0 0.0
2017-Dec-03 14:59N 51°18' E 004°16'0 0.0
2017-Dec-03 14:29N 51°18' E 004°16'0 0.0
2017-Dec-03 13:59N 51°18' E 004°16'0 0.0
2017-Dec-03 13:29N 51°18' E 004°16'0 0.0
2017-Dec-03 12:59N 51°18' E 004°16'0 0.0
2017-Dec-03 12:29N 51°18' E 004°16'0 0.0
2017-Dec-03 11:59N 51°18' E 004°16'0 0.0
2017-Dec-03 11:29N 51°18' E 004°16'0 0.0
2017-Dec-03 10:59N 51°18' E 004°16'0 0.0
2017-Dec-03 10:29N 51°18' E 004°16'0 0.0
2017-Dec-03 09:56N 51°18' E 004°16'0 0.0
2017-Dec-03 09:29N 51°18' E 004°16'0 0.0
2017-Dec-03 08:59N 51°18' E 004°16'0 0.0
2017-Dec-03 08:30N 51°18' E 004°16'1 1.4
2017-Dec-03 08:00N 51°18' E 004°16'3 6.6
2017-Dec-03 07:30N 51°21' E 004°14'4 8.1
2017-Dec-03 07:00N 51°22' E 004°08'5 9.8
2017-Dec-03 06:30N 51°25' E 004°02'5 9.6
2017-Dec-03 06:00N 51°22' E 003°56'510.9
2017-Dec-03 05:30N 51°21' E 003°47'611.5
2017-Dec-03 05:00N 51°26' E 003°41'4 9.0
2017-Dec-03 04:30N 51°26' E 003°34'510.3
2017-Dec-03 04:01N 51°25' E 003°26'714.9
2017-Dec-03 03:31N 51°24' E 003°14'815.8
2017-Dec-03 03:01N 51°25' E 003°01'816.1
2017-Dec-03 02:31N 51°25' E 002°48'5 9.6
2017-Dec-03 02:00N 51°22' E 002°42'2 2.8
2017-Dec-03 01:27N 51°22' E 002°40'3 5.9
2017-Dec-03 01:00N 51°23' E 002°35'4 8.2
2017-Dec-03 00:30N 51°22' E 002°29'4 8.8
2017-Dec-03 00:00N 51°20' E 002°23'713.5
2017-Dec-02 23:30N 51°16' E 002°14'816.7
2017-Dec-02 23:00N 51°12' E 002°02'817.0
2017-Dec-02 22:31N 51°08' E 001°50'917.6
2017-Dec-02 22:00N 51°02' E 001°40'918.1
2017-Dec-02 21:30N 50°56' E 001°29'918.4
2017-Dec-02 21:01N 50°47' E 001°24'917.7
2017-Dec-02 20:30N 50°40' E 001°16'1418.1
2017-Dec-02 19:45N 50°30' E 001°01'717.6
2017-Dec-02 19:22N 50°27' E 000°51'1818.9
2017-Dec-02 18:24N 50°21' E 000°24'820.3
2017-Dec-02 18:00N 50°19' E 000°12'1220.2
2017-Dec-02 17:26N 50°16' W 000°05'920.3
2017-Dec-02 17:00N 50°14' W 000°18'1420.1
2017-Dec-02 16:19N 50°11' W 000°39'719.8
2017-Dec-02 15:59N 50°10' W 000°50'919.4
2017-Dec-02 15:30N 50°08' W 001°04'918.7
2017-Dec-02 15:01N 50°05' W 001°18'917.9
2017-Dec-02 14:30N 50°03' W 001°31'917.2
2017-Dec-02 14:00N 50°01' W 001°44'816.6
2017-Dec-02 13:30N 49°59' W 001°57'816.3
2017-Dec-02 13:00N 49°58' W 002°09'1216.6
2017-Dec-02 12:16N 49°55' W 002°28'617.0
2017-Dec-02 11:55N 49°53' W 002°37'717.5
2017-Dec-02 11:30N 49°52' W 002°48'917.3
2017-Dec-02 11:00N 49°50' W 003°01'917.8
2017-Dec-02 10:30N 49°49' W 003°15'918.1
2017-Dec-02 09:59N 49°48' W 003°29'1018.2
2017-Dec-02 09:25N 49°47' W 003°45'1518.2
2017-Dec-02 08:36N 49°46' W 004°08'818.1
2017-Dec-02 08:10N 49°45' W 004°20'317.9
2017-Dec-02 08:00N 49°45' W 004°25'  
Track history (hours):
 
Tides and Currents Weather Stations Pressure Air Temp Water Temp Dewpoint Dewpoint Depression Visibility Wind Speed Wind Dir Waves Ship Positions

Maersk Kotka

Last reported at 2017-Dec-11 17:00 UTC. Time now 2017-Dec-11 19:12 UTC.
Position N 49°34' W 000°07'.

Length 318 m; draft 12.3 m.

Type: Ship (hazmat cat A). MMSI: 255805595.

Date/timePositionNaut miles runAvg speedWind from/ knotsBaromVisibWave heightAir tempDewpointWater temp
2017-Dec-11 17:00N 49°34' W 000°07'1 2.0
2017-Dec-11 16:30N 49°35' W 000°06'0 0.8
2017-Dec-11 16:00N 49°35' W 000°07'0 0.6
2017-Dec-11 15:30N 49°35' W 000°07'0 0.8
2017-Dec-11 15:00N 49°35' W 000°07'0 0.9
2017-Dec-11 14:30N 49°35' W 000°06'0 0.6
2017-Dec-11 14:00N 49°34' W 000°07'1 2.5
2017-Dec-11 13:31N 49°33' W 000°06'1 1.7
2017-Dec-11 13:00N 49°32' W 000°06'1 1.2
2017-Dec-11 12:30N 49°32' W 000°05'2 3.5
2017-Dec-11 12:00N 49°32' W 000°08'3 5.6
2017-Dec-11 11:30N 49°32' W 000°12'2 3.9
2017-Dec-11 11:00N 49°33' W 000°15'2 4.1
2017-Dec-11 10:30N 49°33' W 000°18'3 5.4
2017-Dec-11 10:00N 49°36' W 000°19'510.7
2017-Dec-11 09:30N 49°41' W 000°22'510.5
2017-Dec-11 09:00N 49°46' W 000°23'611.5
2017-Dec-11 08:30N 49°52' W 000°22'612.7
2017-Dec-11 08:00N 49°58' W 000°19'713.6
2017-Dec-11 07:30N 50°05' W 000°16'714.2
2017-Dec-11 07:00N 50°12' W 000°13'816.2
2017-Dec-11 06:30N 50°19' W 000°10'917.2
2017-Dec-11 06:00N 50°27' W 000°04'918.9
2017-Dec-11 05:30N 50°29' E 000°10'918.6
2017-Dec-11 05:00N 50°32' E 000°24'918.2
2017-Dec-11 04:30N 50°35' E 000°38'918.1
2017-Dec-11 04:00N 50°41' E 000°49'918.1
2017-Dec-11 03:30N 50°46' E 001°01'918.4
2017-Dec-11 03:00N 50°51' E 001°12'1019.1
2017-Dec-11 02:30N 50°58' E 001°23'1020.4
2017-Dec-11 02:00N 51°06' E 001°34'1020.7
2017-Dec-11 01:30N 51°13' E 001°45'1020.2
2017-Dec-11 01:00N 51°22' E 001°52'1019.2
2017-Dec-11 00:31N 51°29' E 002°03'1019.0
2017-Dec-11 00:00N 51°37' E 002°12'7917.4
2017-Dec-10 19:28N 52°38' E 003°33'817.0
2017-Dec-10 19:00N 52°44' E 003°41'917.2
2017-Dec-10 18:30N 52°51' E 003°50'917.1
2017-Dec-10 18:00N 52°57' E 003°60'917.6
2017-Dec-10 17:30N 53°03' E 004°11'918.1
2017-Dec-10 17:00N 53°09' E 004°22'1017.9
2017-Dec-10 16:27N 53°17' E 004°31'818.2
2017-Dec-10 16:00N 53°25' E 004°36'917.6
2017-Dec-10 15:31N 53°31' E 004°46'918.4
2017-Dec-10 15:00N 53°34' E 005°01'918.7
2017-Dec-10 14:30N 53°37' E 005°16'918.1
2017-Dec-10 13:59N 53°40' E 005°31'8116.7
2017-Dec-10 09:08N 53°53' E 007°46'214.8
2017-Dec-10 09:00N 53°53' E 007°49'611.5
2017-Dec-10 08:31N 53°51' E 007°59'816.3
2017-Dec-10 08:00N 53°47' E 008°10'917.8
2017-Dec-10 07:30N 53°41' E 008°22'815.5
2017-Dec-10 07:00N 53°36' E 008°31'1 2.3
2017-Dec-10 06:28N 53°35' E 008°32'0 0.0
2017-Dec-10 05:58N 53°35' E 008°32'0 0.0
2017-Dec-10 05:28N 53°35' E 008°32'0 0.0
2017-Dec-10 04:58N 53°35' E 008°32'0 0.0
2017-Dec-10 04:28N 53°35' E 008°32'0 0.0
2017-Dec-10 03:58N 53°35' E 008°32'0 0.0
2017-Dec-10 03:28N 53°35' E 008°32'0 0.0
2017-Dec-10 02:58N 53°35' E 008°32'0 0.0
2017-Dec-10 02:28N 53°35' E 008°32'0 0.0
2017-Dec-10 01:58N 53°35' E 008°32'0 0.0
2017-Dec-10 01:28N 53°35' E 008°32'0 0.0
2017-Dec-10 00:58N 53°35' E 008°32'0 0.0
2017-Dec-10 00:28N 53°35' E 008°32'0 0.0
2017-Dec-09 23:58N 53°35' E 008°32'0 0.0
2017-Dec-09 23:28N 53°35' E 008°32'0 0.0
2017-Dec-09 22:58N 53°35' E 008°32'0 0.0
2017-Dec-09 22:28N 53°35' E 008°32'0 0.0
2017-Dec-09 21:58N 53°35' E 008°32'0 0.0
2017-Dec-09 21:28N 53°35' E 008°32'0 0.0
2017-Dec-09 20:58N 53°35' E 008°32'0 0.0
2017-Dec-09 20:28N 53°35' E 008°32'0 0.0
2017-Dec-09 19:58N 53°35' E 008°32'0 0.0
2017-Dec-09 19:28N 53°35' E 008°32'0 0.0
2017-Dec-09 18:58N 53°35' E 008°32'0 0.0
2017-Dec-09 18:28N 53°35' E 008°32'0 0.0
2017-Dec-09 17:58N 53°35' E 008°32'0 0.0
2017-Dec-09 17:28N 53°35' E 008°32'0 0.0
2017-Dec-09 16:58N 53°35' E 008°32'0 0.0
2017-Dec-09 16:28N 53°35' E 008°32'0 0.0
2017-Dec-09 15:58N 53°35' E 008°32'0 0.0
2017-Dec-09 15:28N 53°35' E 008°32'0 0.0
2017-Dec-09 14:58N 53°35' E 008°32'0 0.0
2017-Dec-09 14:28N 53°35' E 008°32'0 0.0
2017-Dec-09 13:58N 53°35' E 008°32'0 0.0
2017-Dec-09 13:28N 53°35' E 008°32'0 0.0
2017-Dec-09 12:58N 53°35' E 008°32'0 0.0
2017-Dec-09 12:28N 53°35' E 008°32'0 0.0
2017-Dec-09 11:58N 53°35' E 008°32'0 0.0
2017-Dec-09 11:28N 53°35' E 008°32'0 0.0
2017-Dec-09 10:58N 53°35' E 008°32'0 0.0
2017-Dec-09 10:28N 53°35' E 008°32'0 0.0
2017-Dec-09 09:58N 53°35' E 008°32'0 0.0
2017-Dec-09 09:28N 53°35' E 008°32'0 0.0
2017-Dec-09 08:58N 53°35' E 008°32'0 0.0
2017-Dec-09 08:28N 53°35' E 008°32'0 0.0
2017-Dec-09 07:58N 53°35' E 008°32'0 0.0
2017-Dec-09 07:28N 53°35' E 008°32'0 0.0
2017-Dec-09 06:58N 53°35' E 008°32'0 0.0
2017-Dec-09 06:28N 53°35' E 008°32'0 0.0
2017-Dec-09 05:58N 53°35' E 008°32'0 0.0
2017-Dec-09 05:28N 53°35' E 008°32'0 0.0
2017-Dec-09 04:58N 53°35' E 008°32'0 0.0
2017-Dec-09 04:28N 53°35' E 008°32'0 0.0
2017-Dec-09 03:58N 53°35' E 008°32'0 0.0
2017-Dec-09 03:28N 53°35' E 008°32'0 0.0
2017-Dec-09 02:58N 53°35' E 008°32'0 0.0
2017-Dec-09 02:28N 53°35' E 008°32'0 0.0
2017-Dec-09 01:58N 53°35' E 008°32'0 0.0
2017-Dec-09 01:28N 53°35' E 008°32'0 0.0
2017-Dec-09 00:58N 53°35' E 008°32'0 0.0
2017-Dec-09 00:28N 53°35' E 008°32'0 0.0
2017-Dec-08 23:58N 53°35' E 008°32'0 0.0
2017-Dec-08 23:28N 53°35' E 008°32'0 0.0
2017-Dec-08 22:58N 53°35' E 008°32'0 0.0
2017-Dec-08 22:30N 53°35' E 008°32'1 2.2
2017-Dec-08 22:00N 53°36' E 008°31'3 6.0
2017-Dec-08 21:30N 53°38' E 008°28'612.6
2017-Dec-08 21:00N 53°42' E 008°20'713.5
2017-Dec-08 20:30N 53°46' E 008°11'713.8
2017-Dec-08 20:00N 53°51' E 008°02'816.9
2017-Dec-08 19:30N 53°52' E 007°48'2 2.6
2017-Dec-08 18:54N 53°53' E 007°46'4 8.9
2017-Dec-08 18:30N 53°53' E 007°40'4 7.4
2017-Dec-08 18:00N 53°54' E 007°33'4 6.9
2017-Dec-08 17:29N 53°54' E 007°27'7214.0
2017-Dec-08 12:20N 53°36' E 005°30'412.8
2017-Dec-08 12:00N 53°34' E 005°24'714.8
2017-Dec-08 11:31N 53°32' E 005°12'815.1
2017-Dec-08 11:01N 53°29' E 005°00'815.6
2017-Dec-08 10:30N 53°25' E 004°49'714.6
2017-Dec-08 10:01N 53°20' E 004°41'714.8
2017-Dec-08 09:30N 53°13' E 004°36'815.1
2017-Dec-08 09:00N 53°06' E 004°29'815.6
2017-Dec-08 08:30N 52°59' E 004°23'815.8
2017-Dec-08 08:00N 52°52' E 004°17'815.5
2017-Dec-08 07:30N 52°46' E 004°10'815.6
2017-Dec-08 07:00N 52°39' E 004°03'815.5
2017-Dec-08 06:30N 52°33' E 003°56'816.1
2017-Dec-08 06:00N 52°25' E 003°53'816.2
2017-Dec-08 05:30N 52°17' E 003°52'713.5
2017-Dec-08 05:01N 52°10' E 003°55'5 9.0
2017-Dec-08 04:30N 52°06' E 003°56'3 6.1
2017-Dec-08 04:00N 52°03' E 003°57'4 8.9
2017-Dec-08 03:30N 51°60' E 004°02'2 4.4
2017-Dec-08 03:00N 51°58' E 004°03'0 0.7
2017-Dec-08 02:30N 51°57' E 004°03'0 0.0
2017-Dec-08 01:58N 51°57' E 004°03'0 0.0
2017-Dec-08 01:28N 51°57' E 004°03'0 0.0
2017-Dec-08 00:58N 51°57' E 004°03'0 0.0
2017-Dec-08 00:28N 51°57' E 004°03'0 0.0
2017-Dec-07 23:58N 51°57' E 004°03'0 0.0
2017-Dec-07 23:28N 51°57' E 004°03'0 0.0
2017-Dec-07 22:58N 51°57' E 004°03'0 0.0
2017-Dec-07 22:28N 51°57' E 004°03'0 0.0
2017-Dec-07 21:58N 51°57' E 004°03'0 0.0
2017-Dec-07 21:28N 51°57' E 004°03'0 0.0
2017-Dec-07 20:58N 51°57' E 004°03'0 0.0
2017-Dec-07 20:28N 51°57' E 004°03'0 0.0
2017-Dec-07 19:58N 51°57' E 004°03'0 0.0
2017-Dec-07 19:28N 51°57' E 004°03'0 0.0
2017-Dec-07 18:58N 51°57' E 004°03'0 0.0
2017-Dec-07 18:28N 51°57' E 004°03'0 0.0
2017-Dec-07 17:58N 51°57' E 004°03'0 0.0
2017-Dec-07 17:28N 51°57' E 004°03'0 0.0
2017-Dec-07 16:58N 51°57' E 004°03'0 0.0
2017-Dec-07 16:28N 51°57' E 004°03'0 0.0
2017-Dec-07 15:58N 51°57' E 004°03'0 0.0
2017-Dec-07 15:28N 51°57' E 004°03'0 0.0
2017-Dec-07 14:58N 51°57' E 004°03'0 0.0
2017-Dec-07 14:29N 51°57' E 004°03'0 0.0
2017-Dec-07 13:59N 51°57' E 004°03'0 0.0
2017-Dec-07 13:29N 51°57' E 004°03'0 0.0
2017-Dec-07 12:59N 51°57' E 004°03'0 0.0
2017-Dec-07 12:29N 51°57' E 004°03'0 0.0
2017-Dec-07 12:00N 51°57' E 004°03'0 0.0
2017-Dec-07 11:30N 51°57' E 004°03'0 0.0
2017-Dec-07 11:00N 51°57' E 004°03'0 0.0
2017-Dec-07 10:30N 51°57' E 004°03'0 0.0
2017-Dec-07 10:00N 51°57' E 004°03'0 0.0
2017-Dec-07 09:30N 51°57' E 004°03'0 0.0
2017-Dec-07 09:00N 51°57' E 004°03'0 0.0
2017-Dec-07 08:30N 51°57' E 004°03'0 0.0
2017-Dec-07 08:00N 51°57' E 004°03'0 0.0
2017-Dec-07 07:30N 51°57' E 004°03'0 0.1
2017-Dec-07 07:00N 51°58' E 004°03'1 1.5
2017-Dec-07 06:30N 51°58' E 004°04'1 2.2
2017-Dec-07 06:00N 51°59' E 004°05'3 5.6
2017-Dec-07 05:30N 51°60' E 004°01'3 5.2
2017-Dec-07 05:00N 52°02' E 003°58'2 4.1
2017-Dec-07 04:30N 52°01' E 003°55'3 6.1
2017-Dec-07 04:00N 52°01' E 003°50'5 9.5
2017-Dec-07 03:30N 51°59' E 003°43'5 9.8
2017-Dec-07 03:00N 51°58' E 003°35'4 1.8
2017-Dec-07 00:47N 51°55' E 003°31'0 0.1
2017-Dec-07 00:26N 51°55' E 003°31'0 0.0
2017-Dec-06 23:05N 51°55' E 003°31'0 0.2
2017-Dec-06 22:59N 51°55' E 003°31'0 0.0
2017-Dec-06 21:38N 51°55' E 003°31'0 0.1
2017-Dec-06 21:14N 51°55' E 003°31'0 0.2
2017-Dec-06 20:56N 51°55' E 003°31'  
2017-Dec-04 10:31N 51°25' E 003°29'5 9.3
2017-Dec-04 10:00N 51°26' E 003°37'5 9.2
2017-Dec-04 09:31N 51°24' E 003°43'612.9
2017-Dec-04 09:01N 51°21' E 003°52'714.2
2017-Dec-04 08:31N 51°26' E 003°60'612.3
2017-Dec-04 08:00N 51°22' E 004°07'510.3
2017-Dec-04 07:30N 51°21' E 004°15'3 6.5
2017-Dec-04 07:00N 51°18' E 004°16'0 0.1
2017-Dec-04 06:29N 51°18' E 004°16'0 0.0
2017-Dec-04 05:59N 51°18' E 004°16'0 0.0
2017-Dec-04 05:29N 51°18' E 004°16'0 0.0
2017-Dec-04 04:59N 51°18' E 004°16'0 0.0
2017-Dec-04 04:29N 51°18' E 004°16'0 0.0
2017-Dec-04 03:59N 51°18' E 004°16'0 0.0
2017-Dec-04 03:29N 51°18' E 004°16'0 0.0
2017-Dec-04 02:59N 51°18' E 004°16'0 0.0
2017-Dec-04 02:29N 51°18' E 004°16'0 0.0
2017-Dec-04 01:59N 51°18' E 004°16'0 0.0
2017-Dec-04 01:29N 51°18' E 004°16'0 0.0
2017-Dec-04 00:59N 51°18' E 004°16'0 0.0
2017-Dec-04 00:29N 51°18' E 004°16'0 0.0
2017-Dec-03 23:59N 51°18' E 004°16'0 0.0
2017-Dec-03 23:29N 51°18' E 004°16'0 0.0
2017-Dec-03 22:56N 51°18' E 004°16'0 0.0
2017-Dec-03 22:29N 51°18' E 004°16'0 0.0
2017-Dec-03 21:53N 51°18' E 004°16'0 0.0
2017-Dec-03 21:29N 51°18' E 004°16'0 0.0
2017-Dec-03 20:59N 51°18' E 004°16'0 0.0
2017-Dec-03 20:29N 51°18' E 004°16'0 0.0
2017-Dec-03 19:59N 51°18' E 004°16'0 0.0
2017-Dec-03 19:26N 51°18' E 004°16'0 0.0
2017-Dec-03 18:59N 51°18' E 004°16'0 0.0
2017-Dec-03 18:29N 51°18' E 004°16'0 0.0
2017-Dec-03 17:59N 51°18' E 004°16'0 0.0
2017-Dec-03 17:29N 51°18' E 004°16'0 0.0
2017-Dec-03 16:59N 51°18' E 004°16'0 0.0
2017-Dec-03 16:29N 51°18' E 004°16'0 0.0
2017-Dec-03 15:59N 51°18' E 004°16'0 0.0
2017-Dec-03 15:29N 51°18' E 004°16'0 0.0
2017-Dec-03 14:59N 51°18' E 004°16'0 0.0
2017-Dec-03 14:29N 51°18' E 004°16'0 0.0
2017-Dec-03 13:59N 51°18' E 004°16'0 0.0
2017-Dec-03 13:29N 51°18' E 004°16'0 0.0
2017-Dec-03 12:59N 51°18' E 004°16'0 0.0
2017-Dec-03 12:29N 51°18' E 004°16'0 0.0
2017-Dec-03 11:59N 51°18' E 004°16'0 0.0
2017-Dec-03 11:29N 51°18' E 004°16'0 0.0
2017-Dec-03 10:59N 51°18' E 004°16'0 0.0
2017-Dec-03 10:29N 51°18' E 004°16'0 0.0
2017-Dec-03 09:56N 51°18' E 004°16'0 0.0
2017-Dec-03 09:29N 51°18' E 004°16'0 0.0
2017-Dec-03 08:59N 51°18' E 004°16'0 0.0
2017-Dec-03 08:30N 51°18' E 004°16'1 1.4
2017-Dec-03 08:00N 51°18' E 004°16'3 6.6
2017-Dec-03 07:30N 51°21' E 004°14'4 8.1
2017-Dec-03 07:00N 51°22' E 004°08'5 9.8
2017-Dec-03 06:30N 51°25' E 004°02'5 9.6
2017-Dec-03 06:00N 51°22' E 003°56'510.9
2017-Dec-03 05:30N 51°21' E 003°47'611.5
2017-Dec-03 05:00N 51°26' E 003°41'4 9.0
2017-Dec-03 04:30N 51°26' E 003°34'510.3
2017-Dec-03 04:01N 51°25' E 003°26'714.9
2017-Dec-03 03:31N 51°24' E 003°14'815.8
2017-Dec-03 03:01N 51°25' E 003°01'816.1
2017-Dec-03 02:31N 51°25' E 002°48'5 9.6
2017-Dec-03 02:00N 51°22' E 002°42'2 2.8
2017-Dec-03 01:27N 51°22' E 002°40'3 5.9
2017-Dec-03 01:00N 51°23' E 002°35'4 8.2
2017-Dec-03 00:30N 51°22' E 002°29'4 8.8
2017-Dec-03 00:00N 51°20' E 002°23'713.5
2017-Dec-02 23:30N 51°16' E 002°14'816.7
2017-Dec-02 23:00N 51°12' E 002°02'817.0
2017-Dec-02 22:31N 51°08' E 001°50'917.6
2017-Dec-02 22:00N 51°02' E 001°40'918.1
2017-Dec-02 21:30N 50°56' E 001°29'918.4
2017-Dec-02 21:01N 50°47' E 001°24'917.7
2017-Dec-02 20:30N 50°40' E 001°16'1418.1
2017-Dec-02 19:45N 50°30' E 001°01'717.6
2017-Dec-02 19:22N 50°27' E 000°51'1818.9
2017-Dec-02 18:24N 50°21' E 000°24'820.3
2017-Dec-02 18:00N 50°19' E 000°12'1220.2
2017-Dec-02 17:26N 50°16' W 000°05'920.3
2017-Dec-02 17:00N 50°14' W 000°18'1420.1
2017-Dec-02 16:19N 50°11' W 000°39'719.8
2017-Dec-02 15:59N 50°10' W 000°50'919.4
2017-Dec-02 15:30N 50°08' W 001°04'918.7
2017-Dec-02 15:01N 50°05' W 001°18'917.9
2017-Dec-02 14:30N 50°03' W 001°31'917.2
2017-Dec-02 14:00N 50°01' W 001°44'816.6
2017-Dec-02 13:30N 49°59' W 001°57'816.3
2017-Dec-02 13:00N 49°58' W 002°09'1216.6
2017-Dec-02 12:16N 49°55' W 002°28'617.0
2017-Dec-02 11:55N 49°53' W 002°37'717.5
2017-Dec-02 11:30N 49°52' W 002°48'917.3
2017-Dec-02 11:00N 49°50' W 003°01'917.8
2017-Dec-02 10:30N 49°49' W 003°15'918.1
2017-Dec-02 09:59N 49°48' W 003°29'1018.2
2017-Dec-02 09:25N 49°47' W 003°45'1518.2
2017-Dec-02 08:36N 49°46' W 004°08'818.1
2017-Dec-02 08:10N 49°45' W 004°20'317.9
2017-Dec-02 08:00N 49°45' W 004°25'  

Dump ship's entire track history